sensor_id;sensor_type;location;lat;lon;timestamp;temperature;humidity
3816;DHT22;1923;48.154;11.536;2023-03-01T00:01:46;2.20;99.90
3816;DHT22;1923;48.154;11.536;2023-03-01T00:04:14;2.10;99.90
3816;DHT22;1923;48.154;11.536;2023-03-01T00:06:43;2.00;99.90
3816;DHT22;1923;48.154;11.536;2023-03-01T00:09:13;2.10;99.90
3816;DHT22;1923;48.154;11.536;2023-03-01T00:11:41;2.30;99.90
3816;DHT22;1923;48.154;11.536;2023-03-01T00:14:10;2.40;99.90
3816;DHT22;1923;48.154;11.536;2023-03-01T00:16:40;2.40;99.90
3816;DHT22;1923;48.154;11.536;2023-03-01T00:19:11;2.20;99.90
3816;DHT22;1923;48.154;11.536;2023-03-01T00:21:39;2.20;99.90
3816;DHT22;1923;48.154;11.536;2023-03-01T00:24:08;2.00;99.90
3816;DHT22;1923;48.154;11.536;2023-03-01T00:26:37;2.00;99.90
3816;DHT22;1923;48.154;11.536;2023-03-01T00:29:05;2.00;99.90
3816;DHT22;1923;48.154;11.536;2023-03-01T00:31:35;1.80;99.90
3816;DHT22;1923;48.154;11.536;2023-03-01T00:34:05;1.80;99.90
3816;DHT22;1923;48.154;11.536;2023-03-01T00:36:35;1.90;99.90
3816;DHT22;1923;48.154;11.536;2023-03-01T00:39:04;1.90;99.90
3816;DHT22;1923;48.154;11.536;2023-03-01T00:41:32;1.80;99.90
3816;DHT22;1923;48.154;11.536;2023-03-01T00:44:01;1.80;99.90
3816;DHT22;1923;48.154;11.536;2023-03-01T00:46:29;1.80;99.90
3816;DHT22;1923;48.154;11.536;2023-03-01T00:48:59;1.80;99.90
3816;DHT22;1923;48.154;11.536;2023-03-01T00:51:29;1.80;99.90
3816;DHT22;1923;48.154;11.536;2023-03-01T00:53:59;1.80;99.90
3816;DHT22;1923;48.154;11.536;2023-03-01T00:56:28;1.90;99.90
3816;DHT22;1923;48.154;11.536;2023-03-01T00:58:57;1.90;99.90
3816;DHT22;1923;48.154;11.536;2023-03-01T01:01:26;1.80;99.90
3816;DHT22;1923;48.154;11.536;2023-03-01T01:04:00;1.90;99.90
3816;DHT22;1923;48.154;11.536;2023-03-01T01:06:30;1.80;99.90
3816;DHT22;1923;48.154;11.536;2023-03-01T01:08:59;1.80;99.90
3816;DHT22;1923;48.154;11.536;2023-03-01T01:11:28;1.80;99.90
3816;DHT22;1923;48.154;11.536;2023-03-01T01:13:57;1.70;99.90
3816;DHT22;1923;48.154;11.536;2023-03-01T01:16:27;1.70;99.90
3816;DHT22;1923;48.154;11.536;2023-03-01T01:18:56;1.80;99.90
3816;DHT22;1923;48.154;11.536;2023-03-01T01:21:26;1.90;99.90
3816;DHT22;1923;48.154;11.536;2023-03-01T01:23:54;2.00;99.90
3816;DHT22;1923;48.154;11.536;2023-03-01T01:26:25;2.00;99.90
3816;DHT22;1923;48.154;11.536;2023-03-01T01:28:53;2.10;99.90
3816;DHT22;1923;48.154;11.536;2023-03-01T01:31:21;2.00;99.90
3816;DHT22;1923;48.154;11.536;2023-03-01T01:33:51;1.90;99.90
3816;DHT22;1923;48.154;11.536;2023-03-01T01:36:20;1.90;99.90
3816;DHT22;1923;48.154;11.536;2023-03-01T01:38:49;1.80;99.90
3816;DHT22;1923;48.154;11.536;2023-03-01T01:41:18;1.70;99.90
3816;DHT22;1923;48.154;11.536;2023-03-01T01:43:49;1.70;99.90
3816;DHT22;1923;48.154;11.536;2023-03-01T01:46:23;1.70;99.90
3816;DHT22;1923;48.154;11.536;2023-03-01T01:48:58;1.70;99.90
3816;DHT22;1923;48.154;11.536;2023-03-01T01:51:32;1.80;99.90
3816;DHT22;1923;48.154;11.536;2023-03-01T01:54:11;1.80;99.90
3816;DHT22;1923;48.154;11.536;2023-03-01T01:56:44;1.80;99.90
3816;DHT22;1923;48.154;11.536;2023-03-01T01:59:14;1.80;99.90
3816;DHT22;1923;48.154;11.536;2023-03-01T02:01:43;1.70;99.90
3816;DHT22;1923;48.154;11.536;2023-03-01T02:04:11;1.70;99.90
3816;DHT22;1923;48.154;11.536;2023-03-01T02:06:44;1.70;99.90
3816;DHT22;1923;48.154;11.536;2023-03-01T02:09:15;1.80;99.90
3816;DHT22;1923;48.154;11.536;2023-03-01T02:11:44;1.80;99.90
3816;DHT22;1923;48.154;11.536;2023-03-01T02:14:12;1.80;99.90
3816;DHT22;1923;48.154;11.536;2023-03-01T02:16:40;1.50;99.90
3816;DHT22;1923;48.154;11.536;2023-03-01T02:19:13;1.70;99.90
3816;DHT22;1923;48.154;11.536;2023-03-01T02:21:51;1.50;99.90
3816;DHT22;1923;48.154;11.536;2023-03-01T02:24:31;1.50;99.90
3816;DHT22;1923;48.154;11.536;2023-03-01T02:27:03;1.50;99.90
3816;DHT22;1923;48.154;11.536;2023-03-01T02:29:33;1.50;99.90
3816;DHT22;1923;48.154;11.536;2023-03-01T02:32:02;1.40;99.90
3816;DHT22;1923;48.154;11.536;2023-03-01T02:34:32;1.40;99.90
3816;DHT22;1923;48.154;11.536;2023-03-01T02:37:02;1.50;99.90
3816;DHT22;1923;48.154;11.536;2023-03-01T02:39:33;1.60;99.90
3816;DHT22;1923;48.154;11.536;2023-03-01T02:42:02;1.60;99.90
3816;DHT22;1923;48.154;11.536;2023-03-01T02:44:33;1.60;99.90
3816;DHT22;1923;48.154;11.536;2023-03-01T02:47:02;1.80;99.90
3816;DHT22;1923;48.154;11.536;2023-03-01T02:49:32;1.80;99.90
3816;DHT22;1923;48.154;11.536;2023-03-01T02:52:12;1.80;99.90
3816;DHT22;1923;48.154;11.536;2023-03-01T02:54:48;1.90;99.90
3816;DHT22;1923;48.154;11.536;2023-03-01T02:57:17;1.90;99.90
3816;DHT22;1923;48.154;11.536;2023-03-01T02:59:48;1.80;99.90
3816;DHT22;1923;48.154;11.536;2023-03-01T03:02:20;1.80;99.90
3816;DHT22;1923;48.154;11.536;2023-03-01T03:05:05;1.90;99.90
3816;DHT22;1923;48.154;11.536;2023-03-01T03:07:36;1.70;99.90
3816;DHT22;1923;48.154;11.536;2023-03-01T03:10:06;1.70;99.90
3816;DHT22;1923;48.154;11.536;2023-03-01T03:12:35;1.70;99.90
3816;DHT22;1923;48.154;11.536;2023-03-01T03:15:06;1.70;99.90
3816;DHT22;1923;48.154;11.536;2023-03-01T03:17:36;1.70;99.90
3816;DHT22;1923;48.154;11.536;2023-03-01T03:20:05;1.90;99.90
3816;DHT22;1923;48.154;11.536;2023-03-01T03:22:38;1.90;99.90
3816;DHT22;1923;48.154;11.536;2023-03-01T03:25:07;1.90;99.90
3816;DHT22;1923;48.154;11.536;2023-03-01T03:27:40;1.90;99.90
3816;DHT22;1923;48.154;11.536;2023-03-01T03:30:13;1.40;99.90
3816;DHT22;1923;48.154;11.536;2023-03-01T03:32:43;1.30;99.90
3816;DHT22;1923;48.154;11.536;2023-03-01T03:35:19;1.30;99.90
3816;DHT22;1923;48.154;11.536;2023-03-01T03:37:48;1.50;99.90
3816;DHT22;1923;48.154;11.536;2023-03-01T03:40:34;1.60;99.90
3816;DHT22;1923;48.154;11.536;2023-03-01T03:43:04;1.60;99.90
3816;DHT22;1923;48.154;11.536;2023-03-01T03:45:34;1.50;99.90
3816;DHT22;1923;48.154;11.536;2023-03-01T03:48:04;1.40;99.90
3816;DHT22;1923;48.154;11.536;2023-03-01T03:50:33;1.30;99.90
3816;DHT22;1923;48.154;11.536;2023-03-01T03:53:01;1.30;99.90
3816;DHT22;1923;48.154;11.536;2023-03-01T03:55:29;1.30;99.90
3816;DHT22;1923;48.154;11.536;2023-03-01T03:57:58;1.10;99.90
3816;DHT22;1923;48.154;11.536;2023-03-01T04:00:36;1.00;99.90
3816;DHT22;1923;48.154;11.536;2023-03-01T04:03:05;1.10;99.90
3816;DHT22;1923;48.154;11.536;2023-03-01T04:05:35;1.10;99.90
3816;DHT22;1923;48.154;11.536;2023-03-01T04:08:03;1.10;99.90
3816;DHT22;1923;48.154;11.536;2023-03-01T04:10:35;1.00;99.90
3816;DHT22;1923;48.154;11.536;2023-03-01T04:13:04;0.90;99.90
3816;DHT22;1923;48.154;11.536;2023-03-01T04:15:32;1.10;99.90
3816;DHT22;1923;48.154;11.536;2023-03-01T04:18:03;1.10;99.90
3816;DHT22;1923;48.154;11.536;2023-03-01T04:20:34;0.90;99.90
3816;DHT22;1923;48.154;11.536;2023-03-01T04:23:04;0.90;99.90
3816;DHT22;1923;48.154;11.536;2023-03-01T04:25:38;0.90;99.90
3816;DHT22;1923;48.154;11.536;2023-03-01T04:28:07;1.00;99.90
3816;DHT22;1923;48.154;11.536;2023-03-01T04:30:35;0.90;99.90
3816;DHT22;1923;48.154;11.536;2023-03-01T04:33:06;0.80;99.90
3816;DHT22;1923;48.154;11.536;2023-03-01T04:35:35;0.90;99.90
3816;DHT22;1923;48.154;11.536;2023-03-01T04:38:04;1.00;99.90
3816;DHT22;1923;48.154;11.536;2023-03-01T04:40:32;1.00;99.90
3816;DHT22;1923;48.154;11.536;2023-03-01T04:43:00;0.90;99.90
3816;DHT22;1923;48.154;11.536;2023-03-01T04:45:29;0.90;99.90
3816;DHT22;1923;48.154;11.536;2023-03-01T04:47:57;0.90;99.90
3816;DHT22;1923;48.154;11.536;2023-03-01T04:50:26;0.90;99.90
3816;DHT22;1923;48.154;11.536;2023-03-01T04:52:54;0.90;99.90
3816;DHT22;1923;48.154;11.536;2023-03-01T04:55:25;0.70;99.90
3816;DHT22;1923;48.154;11.536;2023-03-01T04:57:53;0.70;99.90
3816;DHT22;1923;48.154;11.536;2023-03-01T05:00:22;0.70;99.90
3816;DHT22;1923;48.154;11.536;2023-03-01T05:02:52;0.70;99.90
3816;DHT22;1923;48.154;11.536;2023-03-01T05:05:27;0.60;99.90
3816;DHT22;1923;48.154;11.536;2023-03-01T05:07:56;0.50;99.90
3816;DHT22;1923;48.154;11.536;2023-03-01T05:10:26;0.60;99.90
3816;DHT22;1923;48.154;11.536;2023-03-01T05:12:55;0.60;99.90
3816;DHT22;1923;48.154;11.536;2023-03-01T05:15:25;0.40;99.90
3816;DHT22;1923;48.154;11.536;2023-03-01T05:17:54;0.30;99.90
3816;DHT22;1923;48.154;11.536;2023-03-01T05:20:27;0.40;99.90
3816;DHT22;1923;48.154;11.536;2023-03-01T05:22:57;0.20;99.90
3816;DHT22;1923;48.154;11.536;2023-03-01T05:25:26;0.10;99.90
3816;DHT22;1923;48.154;11.536;2023-03-01T05:28:00;0.10;99.90
3816;DHT22;1923;48.154;11.536;2023-03-01T05:30:31;0.00;99.90
3816;DHT22;1923;48.154;11.536;2023-03-01T05:33:00;-0.10;99.90
3816;DHT22;1923;48.154;11.536;2023-03-01T05:35:29;0.00;99.90
3816;DHT22;1923;48.154;11.536;2023-03-01T05:38:00;0.00;99.90
3816;DHT22;1923;48.154;11.536;2023-03-01T05:40:28;0.10;99.90
3816;DHT22;1923;48.154;11.536;2023-03-01T05:42:56;0.20;99.90
3816;DHT22;1923;48.154;11.536;2023-03-01T05:45:26;0.10;99.90
3816;DHT22;1923;48.154;11.536;2023-03-01T05:47:54;0.10;99.90
3816;DHT22;1923;48.154;11.536;2023-03-01T05:50:25;0.20;99.90
3816;DHT22;1923;48.154;11.536;2023-03-01T05:52:59;0.20;99.90
3816;DHT22;1923;48.154;11.536;2023-03-01T05:55:28;0.20;99.90
3816;DHT22;1923;48.154;11.536;2023-03-01T05:57:58;0.20;99.90
3816;DHT22;1923;48.154;11.536;2023-03-01T06:00:28;0.10;99.90
3816;DHT22;1923;48.154;11.536;2023-03-01T06:02:57;0.30;99.90
3816;DHT22;1923;48.154;11.536;2023-03-01T06:05:26;0.30;99.90
3816;DHT22;1923;48.154;11.536;2023-03-01T06:07:54;0.30;99.90
3816;DHT22;1923;48.154;11.536;2023-03-01T06:10:24;0.30;99.90
3816;DHT22;1923;48.154;11.536;2023-03-01T06:12:52;0.20;99.90
3816;DHT22;1923;48.154;11.536;2023-03-01T06:15:21;0.20;99.90
3816;DHT22;1923;48.154;11.536;2023-03-01T06:17:50;0.30;99.90
3816;DHT22;1923;48.154;11.536;2023-03-01T06:20:20;0.10;99.90
3816;DHT22;1923;48.154;11.536;2023-03-01T06:22:48;0.00;99.90
3816;DHT22;1923;48.154;11.536;2023-03-01T06:25:18;0.10;99.90
3816;DHT22;1923;48.154;11.536;2023-03-01T06:27:48;0.20;99.90
3816;DHT22;1923;48.154;11.536;2023-03-01T06:30:19;0.20;99.90
3816;DHT22;1923;48.154;11.536;2023-03-01T06:32:47;0.10;99.90
3816;DHT22;1923;48.154;11.536;2023-03-01T06:35:16;0.00;99.90
3816;DHT22;1923;48.154;11.536;2023-03-01T06:37:46;0.00;99.90
3816;DHT22;1923;48.154;11.536;2023-03-01T06:40:15;-0.10;99.90
3816;DHT22;1923;48.154;11.536;2023-03-01T06:42:49;-0.10;99.90
3816;DHT22;1923;48.154;11.536;2023-03-01T06:45:19;-0.20;99.90
3816;DHT22;1923;48.154;11.536;2023-03-01T06:47:47;-0.10;99.90
3816;DHT22;1923;48.154;11.536;2023-03-01T06:50:16;0.00;99.90
3816;DHT22;1923;48.154;11.536;2023-03-01T06:52:45;0.00;99.90
3816;DHT22;1923;48.154;11.536;2023-03-01T06:55:13;0.10;99.90
3816;DHT22;1923;48.154;11.536;2023-03-01T06:57:41;0.20;99.90
3816;DHT22;1923;48.154;11.536;2023-03-01T07:00:11;0.20;99.90
3816;DHT22;1923;48.154;11.536;2023-03-01T07:02:39;0.40;99.90
3816;DHT22;1923;48.154;11.536;2023-03-01T07:05:08;0.30;99.90
3816;DHT22;1923;48.154;11.536;2023-03-01T07:07:36;0.30;99.90
3816;DHT22;1923;48.154;11.536;2023-03-01T07:10:05;0.30;99.90
3816;DHT22;1923;48.154;11.536;2023-03-01T07:12:33;0.30;99.90
3816;DHT22;1923;48.154;11.536;2023-03-01T07:15:01;0.40;99.90
3816;DHT22;1923;48.154;11.536;2023-03-01T07:17:31;0.40;99.90
3816;DHT22;1923;48.154;11.536;2023-03-01T07:19:59;0.40;99.90
3816;DHT22;1923;48.154;11.536;2023-03-01T07:22:27;0.60;99.90
3816;DHT22;1923;48.154;11.536;2023-03-01T07:24:55;0.40;99.90
3816;DHT22;1923;48.154;11.536;2023-03-01T07:27:23;0.50;99.90
3816;DHT22;1923;48.154;11.536;2023-03-01T07:29:51;0.30;99.90
3816;DHT22;1923;48.154;11.536;2023-03-01T07:32:19;0.40;99.90
3816;DHT22;1923;48.154;11.536;2023-03-01T07:34:50;0.40;99.90
3816;DHT22;1923;48.154;11.536;2023-03-01T07:37:18;0.40;99.90
3816;DHT22;1923;48.154;11.536;2023-03-01T07:39:46;0.40;99.90
3816;DHT22;1923;48.154;11.536;2023-03-01T07:42:14;0.40;99.90
3816;DHT22;1923;48.154;11.536;2023-03-01T07:44:42;0.50;99.90
3816;DHT22;1923;48.154;11.536;2023-03-01T07:47:10;0.50;99.90
3816;DHT22;1923;48.154;11.536;2023-03-01T07:49:38;0.70;99.90
3816;DHT22;1923;48.154;11.536;2023-03-01T07:52:09;0.90;99.90
3816;DHT22;1923;48.154;11.536;2023-03-01T07:54:38;0.90;99.90
3816;DHT22;1923;48.154;11.536;2023-03-01T07:57:06;1.00;99.90
3816;DHT22;1923;48.154;11.536;2023-03-01T07:59:34;1.00;99.90
3816;DHT22;1923;48.154;11.536;2023-03-01T08:02:02;0.90;99.90
3816;DHT22;1923;48.154;11.536;2023-03-01T08:04:30;0.80;99.90
3816;DHT22;1923;48.154;11.536;2023-03-01T08:06:58;0.70;99.90
3816;DHT22;1923;48.154;11.536;2023-03-01T08:09:28;0.70;99.90
3816;DHT22;1923;48.154;11.536;2023-03-01T08:11:56;0.70;99.90
3816;DHT22;1923;48.154;11.536;2023-03-01T08:14:26;0.80;99.90
3816;DHT22;1923;48.154;11.536;2023-03-01T08:16:54;0.90;99.90
3816;DHT22;1923;48.154;11.536;2023-03-01T08:19:22;1.00;99.90
3816;DHT22;1923;48.154;11.536;2023-03-01T08:21:50;1.00;99.90
3816;DHT22;1923;48.154;11.536;2023-03-01T08:24:18;1.20;99.90
3816;DHT22;1923;48.154;11.536;2023-03-01T08:26:48;1.20;99.90
3816;DHT22;1923;48.154;11.536;2023-03-01T08:29:16;1.30;99.90
3816;DHT22;1923;48.154;11.536;2023-03-01T08:31:44;1.30;99.90
3816;DHT22;1923;48.154;11.536;2023-03-01T08:34:15;1.50;99.90
3816;DHT22;1923;48.154;11.536;2023-03-01T08:36:44;1.80;99.90
3816;DHT22;1923;48.154;11.536;2023-03-01T08:39:14;1.50;99.90
3816;DHT22;1923;48.154;11.536;2023-03-01T08:41:43;1.40;99.90
3816;DHT22;1923;48.154;11.536;2023-03-01T08:44:15;1.40;99.90
3816;DHT22;1923;48.154;11.536;2023-03-01T08:46:44;1.50;99.90
3816;DHT22;1923;48.154;11.536;2023-03-01T08:49:15;1.40;99.90
3816;DHT22;1923;48.154;11.536;2023-03-01T08:51:44;1.70;99.90
3816;DHT22;1923;48.154;11.536;2023-03-01T08:54:14;1.50;99.90
3816;DHT22;1923;48.154;11.536;2023-03-01T08:56:42;1.80;99.90
3816;DHT22;1923;48.154;11.536;2023-03-01T08:59:11;2.10;99.90
3816;DHT22;1923;48.154;11.536;2023-03-01T09:01:41;2.00;99.90
3816;DHT22;1923;48.154;11.536;2023-03-01T09:04:11;2.00;99.90
3816;DHT22;1923;48.154;11.536;2023-03-01T09:06:39;1.80;99.90
3816;DHT22;1923;48.154;11.536;2023-03-01T09:09:13;1.70;99.90
3816;DHT22;1923;48.154;11.536;2023-03-01T09:11:43;1.80;99.90
3816;DHT22;1923;48.154;11.536;2023-03-01T09:14:12;2.10;99.90
3816;DHT22;1923;48.154;11.536;2023-03-01T09:16:42;2.10;99.90
3816;DHT22;1923;48.154;11.536;2023-03-01T09:19:10;2.20;99.90
3816;DHT22;1923;48.154;11.536;2023-03-01T09:21:39;2.10;99.90
3816;DHT22;1923;48.154;11.536;2023-03-01T09:24:12;2.20;99.90
3816;DHT22;1923;48.154;11.536;2023-03-01T09:26:41;2.40;99.90
3816;DHT22;1923;48.154;11.536;2023-03-01T09:29:09;2.30;99.90
3816;DHT22;1923;48.154;11.536;2023-03-01T09:31:38;2.20;99.90
3816;DHT22;1923;48.154;11.536;2023-03-01T09:34:08;2.20;99.90
3816;DHT22;1923;48.154;11.536;2023-03-01T09:36:36;2.00;99.90
3816;DHT22;1923;48.154;11.536;2023-03-01T09:39:05;2.00;99.90
3816;DHT22;1923;48.154;11.536;2023-03-01T09:41:44;1.90;99.90
3816;DHT22;1923;48.154;11.536;2023-03-01T09:44:21;2.00;99.90
3816;DHT22;1923;48.154;11.536;2023-03-01T09:46:53;2.10;99.90
3816;DHT22;1923;48.154;11.536;2023-03-01T09:49:24;2.00;99.90
3816;DHT22;1923;48.154;11.536;2023-03-01T09:51:57;2.30;99.90
3816;DHT22;1923;48.154;11.536;2023-03-01T09:54:26;2.50;99.90
3816;DHT22;1923;48.154;11.536;2023-03-01T09:57:06;2.50;99.90
3816;DHT22;1923;48.154;11.536;2023-03-01T09:59:51;2.70;99.90
3816;DHT22;1923;48.154;11.536;2023-03-01T10:02:30;2.70;99.90
3816;DHT22;1923;48.154;11.536;2023-03-01T10:05:10;2.70;99.90
3816;DHT22;1923;48.154;11.536;2023-03-01T10:07:45;2.80;99.90
3816;DHT22;1923;48.154;11.536;2023-03-01T10:10:23;3.00;99.90
3816;DHT22;1923;48.154;11.536;2023-03-01T10:12:55;2.60;99.90
3816;DHT22;1923;48.154;11.536;2023-03-01T10:15:30;2.70;99.90
3816;DHT22;1923;48.154;11.536;2023-03-01T10:18:04;2.60;99.90
3816;DHT22;1923;48.154;11.536;2023-03-01T10:20:43;2.20;99.90
3816;DHT22;1923;48.154;11.536;2023-03-01T10:23:14;2.50;99.90
3816;DHT22;1923;48.154;11.536;2023-03-01T10:25:50;2.60;99.90
3816;DHT22;1923;48.154;11.536;2023-03-01T10:28:25;2.40;99.90
3816;DHT22;1923;48.154;11.536;2023-03-01T10:30:54;2.70;99.90
3816;DHT22;1923;48.154;11.536;2023-03-01T10:33:24;3.10;99.90
3816;DHT22;1923;48.154;11.536;2023-03-01T10:35:55;3.70;99.90
3816;DHT22;1923;48.154;11.536;2023-03-01T10:38:23;4.30;99.90
3816;DHT22;1923;48.154;11.536;2023-03-01T10:40:53;4.60;99.90
3816;DHT22;1923;48.154;11.536;2023-03-01T10:43:24;4.80;99.90
3816;DHT22;1923;48.154;11.536;2023-03-01T10:45:53;5.00;99.90
3816;DHT22;1923;48.154;11.536;2023-03-01T10:48:22;4.90;99.90
3816;DHT22;1923;48.154;11.536;2023-03-01T10:51:06;4.30;99.90
3816;DHT22;1923;48.154;11.536;2023-03-01T10:53:36;4.30;99.90
3816;DHT22;1923;48.154;11.536;2023-03-01T10:56:06;4.70;99.90
3816;DHT22;1923;48.154;11.536;2023-03-01T10:58:37;5.70;99.90
3816;DHT22;1923;48.154;11.536;2023-03-01T11:01:23;6.70;99.90
3816;DHT22;1923;48.154;11.536;2023-03-01T11:04:11;7.40;99.90
3816;DHT22;1923;48.154;11.536;2023-03-01T11:06:41;7.90;99.90
3816;DHT22;1923;48.154;11.536;2023-03-01T11:09:17;8.20;99.90
3816;DHT22;1923;48.154;11.536;2023-03-01T11:11:46;9.30;99.90
3816;DHT22;1923;48.154;11.536;2023-03-01T11:14:22;9.20;99.90
3816;DHT22;1923;48.154;11.536;2023-03-01T11:17:01;9.40;99.90
3816;DHT22;1923;48.154;11.536;2023-03-01T11:19:31;9.60;99.90
3816;DHT22;1923;48.154;11.536;2023-03-01T11:22:03;10.10;99.90
3816;DHT22;1923;48.154;11.536;2023-03-01T11:24:37;10.60;99.90
3816;DHT22;1923;48.154;11.536;2023-03-01T11:27:16;10.80;99.90
3816;DHT22;1923;48.154;11.536;2023-03-01T11:29:48;11.20;99.20
3816;DHT22;1923;48.154;11.536;2023-03-01T11:32:20;11.20;99.00
3816;DHT22;1923;48.154;11.536;2023-03-01T11:34:54;10.20;98.80
3816;DHT22;1923;48.154;11.536;2023-03-01T11:37:32;8.40;99.90
3816;DHT22;1923;48.154;11.536;2023-03-01T11:40:13;7.60;99.90
3816;DHT22;1923;48.154;11.536;2023-03-01T11:42:52;7.30;99.90
3816;DHT22;1923;48.154;11.536;2023-03-01T11:45:25;6.80;99.90
3816;DHT22;1923;48.154;11.536;2023-03-01T11:48:05;6.40;99.90
3816;DHT22;1923;48.154;11.536;2023-03-01T11:50:42;6.00;99.90
3816;DHT22;1923;48.154;11.536;2023-03-01T11:53:30;5.70;99.90
3816;DHT22;1923;48.154;11.536;2023-03-01T11:56:14;5.60;99.90
3816;DHT22;1923;48.154;11.536;2023-03-01T11:59:03;5.40;99.90
3816;DHT22;1923;48.154;11.536;2023-03-01T12:01:48;5.50;99.90
3816;DHT22;1923;48.154;11.536;2023-03-01T12:04:54;5.50;99.90
3816;DHT22;1923;48.154;11.536;2023-03-01T12:07:31;5.40;99.90
3816;DHT22;1923;48.154;11.536;2023-03-01T12:10:19;5.20;99.90
3816;DHT22;1923;48.154;11.536;2023-03-01T12:13:03;5.30;99.90
3816;DHT22;1923;48.154;11.536;2023-03-01T12:16:14;5.30;99.90
3816;DHT22;1923;48.154;11.536;2023-03-01T12:19:18;5.40;99.90
3816;DHT22;1923;48.154;11.536;2023-03-01T12:22:03;5.30;99.90
3816;DHT22;1923;48.154;11.536;2023-03-01T12:24:57;5.30;99.90
3816;DHT22;1923;48.154;11.536;2023-03-01T12:27:55;5.10;99.90
3816;DHT22;1923;48.154;11.536;2023-03-01T12:30:35;5.00;99.90
3816;DHT22;1923;48.154;11.536;2023-03-01T12:33:22;4.90;99.90
3816;DHT22;1923;48.154;11.536;2023-03-01T12:36:09;5.10;99.90
3816;DHT22;1923;48.154;11.536;2023-03-01T12:38:42;5.30;99.90
3816;DHT22;1923;48.154;11.536;2023-03-01T12:41:46;5.20;99.90
3816;DHT22;1923;48.154;11.536;2023-03-01T12:44:42;5.10;99.90
3816;DHT22;1923;48.154;11.536;2023-03-01T12:47:23;5.30;99.90
3816;DHT22;1923;48.154;11.536;2023-03-01T12:49:57;5.20;99.90
3816;DHT22;1923;48.154;11.536;2023-03-01T12:52:32;5.20;99.90
3816;DHT22;1923;48.154;11.536;2023-03-01T12:55:08;5.20;99.90
3816;DHT22;1923;48.154;11.536;2023-03-01T12:57:49;5.00;99.90
3816;DHT22;1923;48.154;11.536;2023-03-01T13:00:27;5.10;99.90
3816;DHT22;1923;48.154;11.536;2023-03-01T13:03:00;5.20;99.90
3816;DHT22;1923;48.154;11.536;2023-03-01T13:05:39;5.20;99.90
3816;DHT22;1923;48.154;11.536;2023-03-01T13:08:15;5.00;99.90
3816;DHT22;1923;48.154;11.536;2023-03-01T13:10:48;5.10;99.90
3816;DHT22;1923;48.154;11.536;2023-03-01T13:13:22;5.10;99.90
3816;DHT22;1923;48.154;11.536;2023-03-01T13:15:52;5.20;99.90
3816;DHT22;1923;48.154;11.536;2023-03-01T13:18:33;5.20;99.90
3816;DHT22;1923;48.154;11.536;2023-03-01T13:21:04;5.10;99.90
3816;DHT22;1923;48.154;11.536;2023-03-01T13:23:35;5.30;99.90
3816;DHT22;1923;48.154;11.536;2023-03-01T13:26:07;5.30;99.90
3816;DHT22;1923;48.154;11.536;2023-03-01T13:31:59;5.20;99.90
3816;DHT22;1923;48.154;11.536;2023-03-01T13:34:45;5.20;99.90
3816;DHT22;1923;48.154;11.536;2023-03-01T13:37:28;5.20;99.90
3816;DHT22;1923;48.154;11.536;2023-03-01T13:39:59;5.30;99.90
3816;DHT22;1923;48.154;11.536;2023-03-01T13:42:37;5.40;99.90
3816;DHT22;1923;48.154;11.536;2023-03-01T13:45:16;5.50;99.90
3816;DHT22;1923;48.154;11.536;2023-03-01T13:47:50;5.60;99.90
3816;DHT22;1923;48.154;11.536;2023-03-01T13:50:23;5.50;99.90
3816;DHT22;1923;48.154;11.536;2023-03-01T13:52:55;5.50;99.90
3816;DHT22;1923;48.154;11.536;2023-03-01T13:55:32;5.50;99.90
3816;DHT22;1923;48.154;11.536;2023-03-01T13:58:14;5.60;99.90
3816;DHT22;1923;48.154;11.536;2023-03-01T14:00:43;5.40;99.90
3816;DHT22;1923;48.154;11.536;2023-03-01T14:03:15;5.30;99.90
3816;DHT22;1923;48.154;11.536;2023-03-01T14:06:03;5.40;99.90
3816;DHT22;1923;48.154;11.536;2023-03-01T14:08:42;5.40;99.90
3816;DHT22;1923;48.154;11.536;2023-03-01T14:11:51;5.50;99.90
3816;DHT22;1923;48.154;11.536;2023-03-01T14:14:42;5.60;99.90
3816;DHT22;1923;48.154;11.536;2023-03-01T14:17:24;5.80;99.90
3816;DHT22;1923;48.154;11.536;2023-03-01T14:20:02;5.90;99.90
3816;DHT22;1923;48.154;11.536;2023-03-01T14:22:33;5.80;99.90
3816;DHT22;1923;48.154;11.536;2023-03-01T14:25:05;5.70;99.90
3816;DHT22;1923;48.154;11.536;2023-03-01T14:27:37;5.70;99.90
3816;DHT22;1923;48.154;11.536;2023-03-01T14:30:12;5.70;99.90
3816;DHT22;1923;48.154;11.536;2023-03-01T14:32:42;5.70;99.90
3816;DHT22;1923;48.154;11.536;2023-03-01T14:35:21;5.60;99.90
3816;DHT22;1923;48.154;11.536;2023-03-01T14:37:49;5.70;99.90
3816;DHT22;1923;48.154;11.536;2023-03-01T14:40:24;5.80;99.90
3816;DHT22;1923;48.154;11.536;2023-03-01T14:42:54;5.80;99.90
3816;DHT22;1923;48.154;11.536;2023-03-01T14:45:24;5.80;99.90
3816;DHT22;1923;48.154;11.536;2023-03-01T14:47:53;5.90;99.90
3816;DHT22;1923;48.154;11.536;2023-03-01T14:50:26;5.90;99.90
3816;DHT22;1923;48.154;11.536;2023-03-01T14:52:57;6.10;99.90
3816;DHT22;1923;48.154;11.536;2023-03-01T14:55:28;6.20;99.90
3816;DHT22;1923;48.154;11.536;2023-03-01T14:57:57;6.20;99.90
3816;DHT22;1923;48.154;11.536;2023-03-01T15:00:31;6.30;99.90
3816;DHT22;1923;48.154;11.536;2023-03-01T15:03:06;6.10;99.90
3816;DHT22;1923;48.154;11.536;2023-03-01T15:05:43;6.10;99.90
3816;DHT22;1923;48.154;11.536;2023-03-01T15:08:17;6.20;99.90
3816;DHT22;1923;48.154;11.536;2023-03-01T15:10:58;6.20;99.90
3816;DHT22;1923;48.154;11.536;2023-03-01T15:13:30;6.20;99.90
3816;DHT22;1923;48.154;11.536;2023-03-01T15:16:09;6.10;99.90
3816;DHT22;1923;48.154;11.536;2023-03-01T15:18:44;5.90;99.90
3816;DHT22;1923;48.154;11.536;2023-03-01T15:21:19;5.90;99.90
3816;DHT22;1923;48.154;11.536;2023-03-01T15:23:50;6.00;99.90
3816;DHT22;1923;48.154;11.536;2023-03-01T15:26:25;6.10;99.90
3816;DHT22;1923;48.154;11.536;2023-03-01T15:28:58;6.20;99.90
3816;DHT22;1923;48.154;11.536;2023-03-01T15:31:28;6.30;99.90
3816;DHT22;1923;48.154;11.536;2023-03-01T15:34:20;6.30;99.90
3816;DHT22;1923;48.154;11.536;2023-03-01T15:36:53;6.40;99.90
3816;DHT22;1923;48.154;11.536;2023-03-01T15:39:34;6.40;99.90
3816;DHT22;1923;48.154;11.536;2023-03-01T15:42:06;6.30;99.90
3816;DHT22;1923;48.154;11.536;2023-03-01T15:44:36;6.30;99.90
3816;DHT22;1923;48.154;11.536;2023-03-01T15:47:26;6.40;99.90
3816;DHT22;1923;48.154;11.536;2023-03-01T15:49:56;6.30;99.90
3816;DHT22;1923;48.154;11.536;2023-03-01T15:52:28;6.30;99.90
3816;DHT22;1923;48.154;11.536;2023-03-01T15:54:58;6.40;99.90
3816;DHT22;1923;48.154;11.536;2023-03-01T15:57:27;6.50;99.90
3816;DHT22;1923;48.154;11.536;2023-03-01T15:59:55;6.60;99.90
3816;DHT22;1923;48.154;11.536;2023-03-01T16:02:24;6.70;99.90
3816;DHT22;1923;48.154;11.536;2023-03-01T16:04:54;6.60;99.90
3816;DHT22;1923;48.154;11.536;2023-03-01T16:07:23;6.60;99.90
3816;DHT22;1923;48.154;11.536;2023-03-01T16:09:54;6.50;99.90
3816;DHT22;1923;48.154;11.536;2023-03-01T16:12:23;6.50;99.90
3816;DHT22;1923;48.154;11.536;2023-03-01T16:14:51;6.40;99.90
3816;DHT22;1923;48.154;11.536;2023-03-01T16:17:21;6.40;99.90
3816;DHT22;1923;48.154;11.536;2023-03-01T16:19:49;6.40;99.90
3816;DHT22;1923;48.154;11.536;2023-03-01T16:22:17;6.40;99.90
3816;DHT22;1923;48.154;11.536;2023-03-01T16:24:51;6.40;99.90
3816;DHT22;1923;48.154;11.536;2023-03-01T16:27:21;6.50;99.90
3816;DHT22;1923;48.154;11.536;2023-03-01T16:29:49;6.50;99.90
3816;DHT22;1923;48.154;11.536;2023-03-01T16:32:17;6.40;99.90
3816;DHT22;1923;48.154;11.536;2023-03-01T16:34:46;6.50;99.90
3816;DHT22;1923;48.154;11.536;2023-03-01T16:37:16;6.50;99.90
3816;DHT22;1923;48.154;11.536;2023-03-01T16:39:45;6.60;99.90